createdAt,value
2018-02-15T00:00:17.513Z,14.70
2018-02-15T00:02:45.056Z,12.50
2018-02-15T00:05:13.341Z,14.63
2018-02-15T00:07:41.648Z,20.00
2018-02-15T00:10:09.173Z,12.32
2018-02-15T00:12:37.478Z,11.55
2018-02-15T00:15:05.000Z,14.75
2018-02-15T00:17:33.310Z,12.88
2018-02-15T00:20:00.828Z,13.07
2018-02-15T00:22:28.365Z,16.55
2018-02-15T00:24:55.885Z,11.23
2018-02-15T00:27:23.432Z,13.80
2018-02-15T00:29:51.721Z,15.88
2018-02-15T00:32:19.261Z,10.68
2018-02-15T00:34:47.547Z,16.80
2018-02-15T00:37:15.853Z,13.02
2018-02-15T00:39:43.368Z,10.35
2018-02-15T00:42:10.909Z,18.83
2018-02-15T00:44:38.429Z,14.20
2018-02-15T00:47:05.985Z,10.77
2018-02-15T00:49:33.497Z,9.30
2018-02-15T00:52:01.010Z,11.43
2018-02-15T00:54:28.548Z,13.13
2018-02-15T00:56:56.833Z,12.85
2018-02-15T00:59:24.377Z,11.57
2018-02-15T01:01:52.659Z,18.52
2018-02-15T01:04:20.966Z,18.42
2018-02-15T01:06:48.481Z,14.00
2018-02-15T01:09:16.789Z,20.65
2018-02-15T01:11:44.308Z,13.62
2018-02-15T01:14:11.848Z,12.25
2018-02-15T01:16:39.361Z,9.95
2018-02-15T01:19:06.897Z,11.70
2018-02-15T01:21:34.417Z,12.55
2018-02-15T01:24:01.961Z,15.27
2018-02-15T01:26:29.480Z,14.25
2018-02-15T01:28:57.787Z,12.75
2018-02-15T01:31:25.303Z,15.15
2018-02-15T01:33:52.841Z,14.30
2018-02-15T01:36:20.376Z,12.15
2018-02-15T01:38:47.912Z,16.05
2018-02-15T01:41:16.197Z,15.70
2018-02-15T01:43:43.735Z,13.43
2018-02-15T01:46:12.017Z,14.43
2018-02-15T01:48:40.316Z,11.43
2018-02-15T01:51:07.889Z,11.10
2018-02-15T01:53:35.424Z,11.68
2018-02-15T01:56:03.715Z,11.12
2018-02-15T01:58:31.253Z,10.48
2018-02-15T02:00:59.553Z,12.98
2018-02-15T02:03:27.068Z,12.98
2018-02-15T02:05:54.610Z,18.08
2018-02-15T02:08:22.181Z,14.10
2018-02-15T02:10:49.813Z,13.60
2018-02-15T02:13:17.370Z,18.23
2018-02-15T02:15:44.918Z,13.75
2018-02-15T02:18:12.597Z,14.30
2018-02-15T02:20:40.142Z,15.43
2018-02-15T02:23:07.667Z,18.83
2018-02-15T02:25:35.210Z,14.50
2018-02-15T02:28:02.731Z,14.85
2018-02-15T02:30:30.271Z,13.27
2018-02-15T02:32:58.557Z,11.77
2018-02-15T02:35:26.105Z,12.85
2018-02-15T02:37:54.397Z,11.43
2018-02-15T02:40:21.945Z,9.43
2018-02-15T02:42:50.234Z,18.33
2018-02-15T02:45:17.785Z,11.15
2018-02-15T02:47:45.309Z,15.27
2018-02-15T02:50:12.849Z,10.40
2018-02-15T02:52:40.369Z,12.23
2018-02-15T02:55:07.918Z,14.07
2018-02-15T02:57:36.205Z,13.00
2018-02-15T03:00:03.759Z,12.77
2018-02-15T03:02:31.345Z,15.07
2018-02-15T03:04:58.885Z,13.45
2018-02-15T03:07:26.410Z,11.80
2018-02-15T03:09:53.960Z,19.30
2018-02-15T03:12:21.590Z,20.73
2018-02-15T03:14:49.138Z,21.50
2018-02-15T03:17:16.657Z,17.98
2018-02-15T03:19:44.196Z,16.45
2018-02-15T03:22:11.726Z,13.38
2018-02-15T03:24:39.269Z,17.52
2018-02-15T03:27:06.798Z,22.85
2018-02-15T03:29:35.113Z,18.02
2018-02-15T03:32:02.642Z,15.60
2018-02-15T03:34:30.953Z,16.80
2018-02-15T03:36:58.525Z,19.27
2018-02-15T03:39:26.090Z,15.63
2018-02-15T03:41:53.612Z,16.67
2018-02-15T03:44:21.919Z,24.02
2018-02-15T03:46:49.439Z,16.35
2018-02-15T03:49:16.985Z,16.02
2018-02-15T03:51:44.517Z,26.75
2018-02-15T03:54:12.213Z,21.37
2018-02-15T03:56:39.737Z,17.98
2018-02-15T03:59:07.261Z,20.67
2018-02-15T04:01:35.574Z,30.83
2018-02-15T04:04:03.097Z,22.55
2018-02-15T04:06:31.407Z,28.12
2018-02-15T04:08:58.928Z,24.52
2018-02-15T04:11:27.232Z,29.98
2018-02-15T04:13:54.754Z,25.33
2018-02-15T04:16:22.309Z,21.70
2018-02-15T04:18:50.607Z,25.83
2018-02-15T04:21:18.164Z,23.33
2018-02-15T04:23:46.457Z,28.02
2018-02-15T04:26:13.997Z,30.33
2018-02-15T04:28:42.289Z,30.17
2018-02-15T04:31:10.700Z,27.80
2018-02-15T04:33:38.229Z,30.00
2018-02-15T04:36:06.536Z,35.90
2018-02-15T04:38:34.058Z,26.85
2018-02-15T04:41:02.372Z,26.50
2018-02-15T04:43:29.897Z,28.15
2018-02-15T04:45:58.210Z,27.50
2018-02-15T04:48:25.769Z,31.45
2018-02-15T04:50:53.308Z,28.60
2018-02-15T04:53:21.592Z,32.28
2018-02-15T04:55:49.176Z,31.33
2018-02-15T04:58:16.701Z,29.70
2018-02-15T05:00:45.021Z,26.92
2018-02-15T05:03:12.543Z,32.75
2018-02-15T05:05:40.829Z,37.75
2018-02-15T05:08:09.133Z,31.12
2018-02-15T05:10:36.655Z,34.92
2018-02-15T05:13:04.962Z,33.15
2018-02-15T05:15:32.493Z,29.10
2018-02-15T05:18:00.802Z,32.67
2018-02-15T05:20:28.322Z,28.58
2018-02-15T05:22:56.634Z,28.73
2018-02-15T05:25:24.158Z,35.30
2018-02-15T05:27:51.696Z,32.08
2018-02-15T05:30:19.218Z,32.00
2018-02-15T05:32:46.789Z,31.60
2018-02-15T05:35:14.306Z,30.65
2018-02-15T05:37:42.612Z,28.92
2018-02-15T05:40:10.129Z,35.50
2018-02-15T05:42:37.673Z,28.15
2018-02-15T05:45:05.194Z,28.80
2018-02-15T05:47:32.755Z,35.50
2018-02-15T05:50:00.273Z,43.38
2018-02-15T05:52:27.793Z,28.92
2018-02-15T05:54:55.335Z,30.95
2018-02-15T05:57:22.862Z,33.45
2018-02-15T05:59:51.170Z,37.42
2018-02-15T06:02:18.688Z,36.80
2018-02-15T06:04:46.232Z,28.62
2018-02-15T06:07:13.757Z,32.08
2018-02-15T06:09:41.302Z,23.65
2018-02-15T06:12:08.816Z,23.38
2018-02-15T06:14:36.437Z,20.95
2018-02-15T06:17:03.961Z,25.35
2018-02-15T06:19:32.272Z,32.53
2018-02-15T06:21:59.836Z,27.40
2018-02-15T06:24:27.397Z,34.58
2018-02-15T06:26:54.916Z,35.67
2018-02-15T06:29:23.224Z,30.65
2018-02-15T06:31:50.751Z,33.58
2018-02-15T06:34:19.062Z,36.38
2018-02-15T06:36:46.581Z,31.20
2018-02-15T06:39:14.138Z,39.00
2018-02-15T06:41:41.658Z,28.73
2018-02-15T06:44:09.214Z,30.88
2018-02-15T06:46:36.753Z,35.75
2018-02-15T06:49:04.286Z,38.70
2018-02-15T06:51:31.833Z,42.17
2018-02-15T06:53:59.365Z,32.00
2018-02-15T06:56:27.016Z,31.12
2018-02-15T06:58:54.547Z,39.92
2018-02-15T07:01:22.853Z,30.88
2018-02-15T07:03:50.369Z,40.10
2018-02-15T07:06:17.908Z,37.78
2018-02-15T07:08:45.434Z,43.70
2018-02-15T07:11:12.998Z,32.72
2018-02-15T07:13:40.523Z,33.80
2018-02-15T07:16:08.831Z,41.00
2018-02-15T07:18:36.398Z,41.33
2018-02-15T07:21:03.950Z,42.55
2018-02-15T07:23:31.473Z,34.70
2018-02-15T07:25:59.790Z,35.50
2018-02-15T07:28:27.305Z,37.67
2018-02-15T07:30:54.844Z,30.12
2018-02-15T07:33:22.365Z,38.28
2018-02-15T07:35:49.914Z,37.92
2018-02-15T07:38:17.437Z,44.75
2018-02-15T07:40:45.053Z,34.65
2018-02-15T07:43:12.612Z,41.83
2018-02-15T07:45:40.134Z,37.30
2018-02-15T07:48:08.442Z,34.88
2018-02-15T07:50:35.965Z,32.05
2018-02-15T07:53:03.501Z,37.60
2018-02-15T07:55:31.016Z,44.60
2018-02-15T07:57:58.821Z,37.95
2018-02-15T08:00:26.341Z,35.85
2018-02-15T08:02:53.888Z,39.75
2018-02-15T08:05:22.176Z,40.50
2018-02-15T08:07:49.720Z,41.33
2018-02-15T08:10:18.005Z,34.72
2018-02-15T08:12:46.313Z,36.22
2018-02-15T08:15:13.833Z,34.08
2018-02-15T08:17:42.138Z,40.28
2018-02-15T08:20:09.665Z,33.33
2018-02-15T08:22:37.205Z,41.05
2018-02-15T08:25:04.729Z,36.55
2018-02-15T08:27:32.286Z,37.65
2018-02-15T08:29:59.812Z,33.20
2018-02-15T08:32:28.126Z,34.28
2018-02-15T08:34:55.692Z,36.72
2018-02-15T08:37:23.233Z,38.78
2018-02-15T08:39:50.783Z,41.95
2018-02-15T08:42:19.069Z,36.60
2018-02-15T08:44:46.617Z,39.03
2018-02-15T08:47:14.910Z,43.83
2018-02-15T08:49:42.453Z,37.97
2018-02-15T08:52:10.733Z,35.35
2018-02-15T08:54:39.149Z,46.75
2018-02-15T08:57:06.670Z,35.47
2018-02-15T08:59:34.989Z,36.85
2018-02-15T09:02:02.517Z,39.60
2018-02-15T09:04:30.931Z,42.58
2018-02-15T09:09:33.324Z,38.33
2018-02-15T09:12:00.840Z,38.67
2018-02-15T09:14:28.386Z,37.13
2018-02-15T09:16:55.905Z,36.70
2018-02-15T09:19:23.449Z,38.47
2018-02-15T09:21:50.980Z,36.55
2018-02-15T09:24:18.521Z,37.08
2018-02-15T09:26:46.049Z,39.25
2018-02-15T09:29:13.590Z,39.08
2018-02-15T09:31:41.116Z,39.45
2018-02-15T09:34:08.667Z,36.20
2018-02-15T09:36:36.185Z,45.03
2018-02-15T09:39:03.725Z,39.35
2018-02-15T09:41:32.010Z,36.83
2018-02-15T09:43:59.556Z,38.83
2018-02-15T09:46:27.850Z,39.45
2018-02-15T09:48:55.394Z,43.97
2018-02-15T09:51:23.679Z,39.83
2018-02-15T09:53:51.990Z,37.38
2018-02-15T09:56:19.545Z,33.88
2018-02-15T09:58:47.097Z,33.72
2018-02-15T10:01:14.613Z,36.67
2018-02-15T10:03:42.229Z,36.97
2018-02-15T10:06:09.773Z,38.00
2018-02-15T10:08:37.289Z,37.55
2018-02-15T10:11:04.831Z,39.28
2018-02-15T10:13:32.345Z,36.80
2018-02-15T10:15:59.885Z,39.33
2018-02-15T10:18:28.209Z,40.55
2018-02-15T10:20:55.744Z,42.83
2018-02-15T10:23:24.044Z,37.10
2018-02-15T10:25:51.585Z,36.90
2018-02-15T10:28:19.864Z,38.20
2018-02-15T10:30:48.173Z,34.88
2018-02-15T10:33:15.694Z,33.17
2018-02-15T10:35:44.006Z,37.78
2018-02-15T10:38:11.525Z,39.85
2018-02-15T10:40:39.832Z,42.38
2018-02-15T10:43:07.350Z,35.40
2018-02-15T10:45:36.377Z,34.13
2018-02-15T10:48:04.684Z,35.70
2018-02-15T10:50:32.212Z,36.08
2018-02-15T10:53:00.513Z,37.67
2018-02-15T10:55:28.028Z,31.73
2018-02-15T10:57:55.568Z,30.02
2018-02-15T11:00:28.657Z,38.20
2018-02-15T11:03:01.895Z,33.03
2018-02-15T11:05:30.176Z,37.58
2018-02-15T11:07:58.480Z,31.90
2018-02-15T11:10:25.997Z,32.67
2018-02-15T11:12:54.300Z,25.75
2018-02-15T11:15:21.821Z,31.08
2018-02-15T11:17:49.356Z,26.33
2018-02-15T11:20:16.872Z,31.08
2018-02-15T11:22:45.177Z,25.95
2018-02-15T11:25:12.688Z,28.17
2018-02-15T11:27:41.017Z,24.08
2018-02-15T11:30:08.580Z,20.95
2018-02-15T11:32:36.125Z,24.20
2018-02-15T11:35:03.641Z,26.42
2018-02-15T11:37:31.266Z,22.37
2018-02-15T11:39:58.780Z,25.23
2018-02-15T11:42:26.314Z,27.20
2018-02-15T11:44:53.832Z,24.15
2018-02-15T11:47:21.382Z,20.88
2018-02-15T11:49:48.901Z,24.33
2018-02-15T11:52:16.414Z,23.00
2018-02-15T11:54:43.956Z,24.30
2018-02-15T11:57:12.240Z,22.55
2018-02-15T11:59:40.646Z,31.20
2018-02-15T12:02:08.165Z,27.52
2018-02-15T12:04:36.468Z,22.40
2018-02-15T12:07:03.986Z,19.83
2018-02-15T12:09:31.601Z,28.85
2018-02-15T12:11:59.116Z,23.17
2018-02-15T12:14:26.654Z,26.90
2018-02-15T12:16:54.167Z,23.02
2018-02-15T12:19:21.700Z,27.80
2018-02-15T12:21:49.224Z,26.23
2018-02-15T12:24:16.758Z,22.52
2018-02-15T12:26:44.274Z,26.02
2018-02-15T12:29:11.809Z,30.88
2018-02-15T12:31:39.329Z,25.50
2018-02-15T12:34:07.630Z,24.35
2018-02-15T12:36:35.144Z,23.80
2018-02-15T12:39:02.690Z,20.58
2018-02-15T12:41:30.312Z,23.30
2018-02-15T12:43:57.877Z,22.30
2018-02-15T12:46:25.437Z,18.55
2018-02-15T12:48:52.997Z,22.75
2018-02-15T12:51:20.537Z,25.33
2018-02-15T12:53:48.122Z,22.62
2018-02-15T12:56:15.660Z,20.90
2018-02-15T12:58:43.178Z,18.55
2018-02-15T13:01:10.719Z,15.10
2018-02-15T13:03:38.232Z,21.02
2018-02-15T13:06:06.575Z,17.80
2018-02-15T13:08:34.102Z,19.90
2018-02-15T13:11:01.661Z,20.30
2018-02-15T13:13:31.023Z,17.75
2018-02-15T13:16:11.083Z,22.52
2018-02-15T13:18:39.372Z,18.48
2018-02-15T13:21:07.679Z,17.33
2018-02-15T13:23:35.201Z,21.00
2018-02-15T13:26:03.521Z,20.20
2018-02-15T13:28:38.124Z,16.77
2018-02-15T13:31:05.669Z,22.95
2018-02-15T13:33:33.951Z,18.75
2018-02-15T13:36:02.252Z,21.25
2018-02-15T13:38:29.769Z,25.77
2018-02-15T13:40:57.305Z,21.95
2018-02-15T13:43:24.825Z,13.60
2018-02-15T13:45:52.376Z,16.83
2018-02-15T13:48:20.677Z,17.52
2018-02-15T13:50:48.193Z,18.92
2018-02-15T13:53:15.799Z,19.15
2018-02-15T13:55:43.314Z,16.33
2018-02-15T13:58:11.167Z,15.27
2018-02-15T14:00:38.692Z,19.90
2018-02-15T14:03:06.234Z,18.48
2018-02-15T14:05:33.813Z,15.73
2018-02-15T14:08:01.349Z,18.52
2018-02-15T14:10:29.562Z,14.18
2018-02-15T14:12:57.173Z,20.05
2018-02-15T14:15:25.457Z,19.10
2018-02-15T14:17:53.758Z,16.50
2018-02-15T14:20:21.322Z,16.08
2018-02-15T14:22:48.889Z,16.17
2018-02-15T14:25:16.410Z,18.10
2018-02-15T14:27:44.722Z,19.23
2018-02-15T14:30:12.239Z,17.65
2018-02-15T14:32:40.546Z,18.15
2018-02-15T14:35:08.081Z,16.12
2018-02-15T14:37:36.362Z,15.35
2018-02-15T14:40:04.682Z,16.27
2018-02-15T14:42:32.197Z,15.93
2018-02-15T14:45:00.481Z,16.62
2018-02-15T14:47:28.785Z,14.25
2018-02-15T14:49:56.317Z,17.92
2018-02-15T14:52:24.737Z,18.85
2018-02-15T14:54:52.246Z,12.60
2018-02-15T14:57:20.561Z,20.12
2018-02-15T14:59:48.085Z,23.90
2018-02-15T15:02:15.691Z,18.90
2018-02-15T15:04:43.209Z,19.58
2018-02-15T15:07:11.512Z,18.10
2018-02-15T15:09:39.093Z,18.50
2018-02-15T15:12:06.633Z,23.98
2018-02-15T15:14:34.148Z,19.67
2018-02-15T15:17:01.768Z,23.75
2018-02-15T15:19:29.329Z,18.17
2018-02-15T15:21:56.893Z,11.55
2018-02-15T15:24:24.452Z,19.87
2018-02-15T15:26:51.990Z,26.73
2018-02-15T15:29:19.507Z,19.12
2018-02-15T15:31:47.045Z,21.55
2018-02-15T15:34:14.562Z,17.35
2018-02-15T15:36:42.873Z,15.88
2018-02-15T15:39:10.402Z,16.90
2018-02-15T15:41:38.757Z,13.20
2018-02-15T15:44:06.292Z,17.17
2018-02-15T15:46:33.812Z,15.88
2018-02-15T15:49:01.350Z,18.65
2018-02-15T15:51:29.658Z,23.45
2018-02-15T15:53:57.231Z,19.17
2018-02-15T15:56:24.748Z,20.67
2018-02-15T15:58:53.058Z,18.75
2018-02-15T16:01:20.574Z,22.17
2018-02-15T16:03:48.118Z,15.20
2018-02-15T16:06:15.637Z,14.48
2018-02-15T16:08:43.173Z,19.80
2018-02-15T16:11:11.458Z,17.05
2018-02-15T16:13:39.757Z,23.55
2018-02-15T16:16:07.321Z,20.30
2018-02-15T16:18:34.882Z,22.02
2018-02-15T16:21:02.438Z,18.20
2018-02-15T16:23:29.981Z,26.08
2018-02-15T16:25:58.265Z,19.15
2018-02-15T16:28:25.853Z,15.45
2018-02-15T16:30:53.370Z,13.90
2018-02-15T16:33:21.660Z,12.60
2018-02-15T16:35:49.944Z,13.13
2018-02-15T16:38:18.246Z,12.45
2018-02-15T16:40:45.752Z,8.60
2018-02-15T16:43:14.033Z,11.90
2018-02-15T16:45:41.570Z,19.20
2018-02-15T16:48:09.081Z,12.77
2018-02-15T16:50:37.385Z,15.13
2018-02-15T16:53:04.909Z,16.17
2018-02-15T16:55:33.220Z,28.83
2018-02-15T16:58:00.738Z,25.98
2018-02-15T17:00:28.269Z,21.20
2018-02-15T17:02:55.789Z,27.05
2018-02-15T17:05:24.197Z,23.92
2018-02-15T17:07:51.725Z,24.95
2018-02-15T17:10:20.026Z,28.58
2018-02-15T17:12:47.536Z,24.17
2018-02-15T17:15:15.069Z,23.15
2018-02-15T17:17:42.614Z,21.30
2018-02-15T17:20:10.173Z,29.63
2018-02-15T17:22:37.697Z,18.98
2018-02-15T17:25:05.997Z,23.67
2018-02-15T17:27:33.517Z,25.37
2018-02-15T17:30:01.066Z,33.20
2018-02-15T17:32:28.583Z,28.15
2018-02-15T17:34:56.101Z,28.65
2018-02-15T17:37:23.714Z,24.08
2018-02-15T17:39:51.229Z,22.60
2018-02-15T17:42:18.841Z,24.70
2018-02-15T17:44:46.406Z,33.95
2018-02-15T17:47:13.936Z,27.30
2018-02-15T17:49:42.354Z,27.45
2018-02-15T17:52:09.911Z,22.15
2018-02-15T17:54:37.421Z,24.27
2018-02-15T17:57:06.261Z,34.80
2018-02-15T17:59:33.830Z,28.42
2018-02-15T18:02:01.366Z,34.50
2018-02-15T18:04:28.945Z,38.38
2018-02-15T18:06:56.476Z,44.78
2018-02-15T18:09:24.787Z,36.95
2018-02-15T18:11:52.325Z,38.10
2018-02-15T18:14:19.840Z,37.15
2018-02-15T18:16:47.392Z,35.35
2018-02-15T18:19:14.908Z,42.40
2018-02-15T18:21:42.446Z,36.75
2018-02-15T18:24:10.725Z,36.95
2018-02-15T18:26:39.030Z,33.45
2018-02-15T18:29:06.549Z,34.28
2018-02-15T18:31:35.592Z,37.63
2018-02-15T18:34:03.114Z,28.55
2018-02-15T18:36:30.630Z,28.73
2018-02-15T18:38:58.174Z,30.92
2018-02-15T18:41:25.737Z,28.42
2018-02-15T18:43:53.276Z,24.55
2018-02-15T18:46:21.561Z,38.28
2018-02-15T18:48:49.139Z,32.50
2018-02-15T18:51:16.657Z,31.40
2018-02-15T18:53:44.961Z,24.10
2018-02-15T18:56:12.537Z,26.00
2018-02-15T18:58:40.069Z,29.48
2018-02-15T19:01:08.350Z,28.20
2018-02-15T19:03:36.661Z,28.40
2018-02-15T19:06:04.181Z,36.85
2018-02-15T19:08:32.500Z,33.88
2018-02-15T19:11:00.022Z,41.30
2018-02-15T19:13:28.327Z,39.05
2018-02-15T19:15:55.897Z,32.10
2018-02-15T19:18:23.433Z,35.35
2018-02-15T19:20:51.718Z,36.92
2018-02-15T19:23:19.252Z,37.97
2018-02-15T19:25:47.541Z,51.35
2018-02-15T19:28:15.849Z,46.28
2018-02-15T19:30:43.418Z,38.03
2018-02-15T19:33:10.983Z,35.85
2018-02-15T19:35:38.533Z,43.33
2018-02-15T19:38:06.076Z,54.45
2018-02-15T19:40:33.669Z,51.92
2018-02-15T19:43:01.218Z,47.53
2018-02-15T19:45:28.741Z,46.10
2018-02-15T19:47:57.042Z,51.05
2018-02-15T19:50:24.554Z,45.00
2018-02-15T19:52:52.084Z,42.42
2018-02-15T19:55:19.622Z,47.28
2018-02-15T19:57:47.142Z,51.08
2018-02-15T20:00:14.677Z,52.95
2018-02-15T20:02:42.194Z,39.38
2018-02-15T20:05:10.496Z,44.55
2018-02-15T20:07:38.022Z,47.83
2018-02-15T20:10:06.330Z,53.45
2018-02-15T20:12:33.846Z,49.17
2018-02-15T20:15:01.381Z,41.58
2018-02-15T20:17:28.899Z,46.28
2018-02-15T20:20:02.061Z,50.65
2018-02-15T20:22:29.582Z,48.87
2018-02-15T20:24:57.118Z,47.03
2018-02-15T20:27:30.293Z,33.70
2018-02-15T20:29:58.702Z,37.25
2018-02-15T20:32:26.220Z,33.00
2018-02-15T20:34:54.538Z,32.05
2018-02-15T20:37:22.052Z,28.40
2018-02-15T20:39:55.325Z,27.50
2018-02-15T20:42:22.840Z,32.97
2018-02-15T20:44:50.421Z,32.40
2018-02-15T20:47:17.937Z,29.90
2018-02-15T20:52:50.730Z,26.27
2018-02-15T20:55:23.863Z,26.87
2018-02-15T20:57:51.466Z,28.75
2018-02-15T21:00:19.094Z,26.95
2018-02-15T21:02:46.612Z,37.22
2018-02-15T21:05:14.936Z,43.17
2018-02-15T21:07:42.449Z,43.70
2018-02-15T21:10:10.754Z,39.50
2018-02-15T21:12:38.278Z,47.53
2018-02-15T21:15:05.817Z,43.22
2018-02-15T21:17:33.333Z,43.38
2018-02-15T21:20:00.913Z,50.53
2018-02-15T21:22:28.474Z,40.08
2018-02-15T21:24:55.989Z,40.20
2018-02-15T21:27:23.522Z,39.42
2018-02-15T21:29:51.032Z,42.42
2018-02-15T21:32:19.438Z,31.75
2018-02-15T21:34:47.023Z,47.60
2018-02-15T21:37:15.281Z,56.83
2018-02-15T21:39:42.805Z,46.58
2018-02-15T21:42:11.129Z,63.33
2018-02-15T21:44:38.677Z,47.10
2018-02-15T21:47:06.213Z,46.28
2018-02-15T21:49:34.517Z,50.45
2018-02-15T21:52:02.054Z,58.42
2018-02-15T21:54:30.337Z,50.78
2018-02-15T21:56:57.880Z,64.05
2018-02-15T21:59:26.161Z,44.03
2018-02-15T22:01:54.480Z,62.45
2018-02-15T22:04:22.002Z,52.10
2018-02-15T22:06:50.311Z,48.92
2018-02-15T22:09:17.877Z,39.33
2018-02-15T22:11:45.392Z,40.47
2018-02-15T22:14:13.716Z,31.42
2018-02-15T22:16:41.232Z,34.55
2018-02-15T22:19:09.533Z,36.35
2018-02-15T22:21:37.054Z,31.60
2018-02-15T22:24:04.593Z,33.38
2018-02-15T22:26:32.133Z,30.42
2018-02-15T22:28:59.672Z,30.25
2018-02-15T22:31:27.185Z,29.02
2018-02-15T22:33:54.726Z,33.72
2018-02-15T22:36:22.240Z,37.35
2018-02-15T22:38:50.546Z,39.03
2018-02-15T22:41:18.061Z,50.53
2018-02-15T22:43:45.598Z,65.68
2018-02-15T22:46:13.114Z,52.85
2018-02-15T22:48:40.693Z,52.08
2018-02-15T22:51:08.227Z,38.20
2018-02-15T22:53:36.505Z,39.92
2018-02-15T22:56:04.910Z,33.10
2018-02-15T22:58:32.426Z,26.90
2018-02-15T23:01:00.746Z,32.83
2018-02-15T23:03:28.308Z,28.85
2018-02-15T23:05:55.848Z,41.00
2018-02-15T23:08:23.369Z,36.03
2018-02-15T23:10:50.901Z,42.15
2018-02-15T23:13:18.416Z,47.83
2018-02-15T23:15:46.725Z,61.88
2018-02-15T23:18:14.287Z,42.62
2018-02-15T23:20:41.816Z,46.45
2018-02-15T23:23:10.102Z,70.72
2018-02-15T23:25:38.407Z,62.47
2018-02-15T23:28:05.917Z,74.43
2018-02-15T23:30:33.458Z,63.58
2018-02-15T23:33:00.973Z,70.90
2018-02-15T23:35:28.504Z,65.55
2018-02-15T23:37:56.046Z,72.20
2018-02-15T23:40:23.563Z,53.97
2018-02-15T23:42:51.109Z,54.92
2018-02-15T23:45:18.628Z,83.78
2018-02-15T23:47:46.165Z,70.93
2018-02-15T23:50:13.692Z,65.95
2018-02-15T23:52:41.225Z,55.42
2018-02-15T23:55:08.831Z,49.60
2018-02-15T23:57:36.369Z,64.40
